Time;durP1;ratioP1;P1;durP2;ratioP2;P2;SDS_P1;SDS_P2;PMS_P1;PMS_P2;Temp;Humidity;BMP_temperature;BMP_pressure;BME280_temperature;BME280_humidity;BME280_pressure;Samples;Min_cycle;Max_cycle;Signal;HPM_P1;HPM_P2
2021/04/13 00:01:13;;;;;;;9.85;5.90;;;0.60;99.90;;;;;;4915407;28;20060;-74
2021/04/13 00:03:47;;;;;;;9.73;5.32;;;0.70;99.90;;;;;;4980620;28;20445;-74
2021/04/13 00:06:20;;;;;;;11.35;5.50;;;0.80;99.90;;;;;;4980563;28;20062;-73
2021/04/13 00:08:50;;;;;;;9.52;5.18;;;0.90;99.90;;;;;;4980530;28;20028;-73
2021/04/13 00:11:17;;;;;;;10.23;5.18;;;0.80;99.90;;;;;;4914770;28;20020;-74
2021/04/13 00:13:42;;;;;;;10.32;4.95;;;0.90;99.90;;;;;;4980531;28;20058;-74
2021/04/13 00:16:20;;;;;;;9.32;4.90;;;0.90;99.90;;;;;;4980363;28;20110;-74
2021/04/13 00:18:47;;;;;;;10.30;5.82;;;0.90;99.90;;;;;;4980250;28;20402;-73
2021/04/13 00:21:18;;;;;;;9.13;4.93;;;0.90;99.90;;;;;;4980361;28;20032;-74
2021/04/13 00:23:45;;;;;;;9.57;5.55;;;0.90;99.90;;;;;;4914903;28;20024;-74
2021/04/13 00:26:20;;;;;;;10.88;6.10;;;0.70;99.90;;;;;;4980087;28;20222;-73
2021/04/13 00:28:47;;;;;;;9.57;4.93;;;0.70;99.90;;;;;;4914480;29;20028;-73
2021/04/13 00:31:38;;;;;;;9.02;5.53;;;0.60;99.90;;;;;;4979979;28;20067;-74
2021/04/13 00:34:29;;;;;;;9.93;5.63;;;0.60;99.90;;;;;;4980241;28;20021;-73
2021/04/13 00:37:24;;;;;;;10.32;6.43;;;0.50;99.90;;;;;;4980327;28;20028;-74
2021/04/13 00:39:55;;;;;;;9.85;5.13;;;0.50;99.90;;;;;;4979968;28;20027;-73
2021/04/13 00:42:28;;;;;;;9.52;5.68;;;0.50;99.90;;;;;;4914405;28;20036;-73
2021/04/13 00:44:58;;;;;;;8.45;5.18;;;0.50;99.90;;;;;;4914723;28;20025;-73
2021/04/13 00:47:45;;;;;;;9.45;5.05;;;0.50;99.90;;;;;;4914626;28;20111;-73
2021/04/13 00:50:23;;;;;;;10.30;5.78;;;0.50;99.90;;;;;;4979774;28;20453;-74
2021/04/13 00:52:54;;;;;;;11.43;6.20;;;0.50;99.90;;;;;;4914113;29;20115;-73
2021/04/13 00:55:22;;;;;;;10.80;6.07;;;0.40;99.90;;;;;;4979628;28;20028;-73
2021/04/13 00:57:57;;;;;;;10.95;6.30;;;0.40;99.90;;;;;;4914401;28;20071;-73
2021/04/13 01:00:28;;;;;;;9.93;5.43;;;0.30;99.90;;;;;;4979550;28;20036;-73
2021/04/13 01:03:02;;;;;;;10.10;5.65;;;0.30;99.90;;;;;;4914022;28;20024;-74
2021/04/13 01:05:41;;;;;;;11.70;5.60;;;0.30;99.90;;;;;;4913464;28;20027;-73
2021/04/13 01:08:23;;;;;;;10.60;5.75;;;0.40;99.90;;;;;;4914124;28;20491;-74
2021/04/13 01:10:51;;;;;;;9.80;5.80;;;0.40;99.90;;;;;;4914359;28;20040;-74
2021/04/13 01:13:33;;;;;;;9.88;5.22;;;0.30;99.90;;;;;;4979376;28;20028;-74
2021/04/13 01:15:59;;;;;;;10.90;6.07;;;0.20;99.90;;;;;;4979312;28;20036;-73
2021/04/13 01:18:33;;;;;;;11.32;6.53;;;0.10;99.90;;;;;;4914068;29;20590;-73
2021/04/13 01:21:17;;;;;;;12.65;5.72;;;0.10;99.90;;;;;;4914248;28;20059;-74
2021/04/13 01:23:54;;;;;;;11.55;6.22;;;0.10;99.90;;;;;;4914131;28;20036;-74
2021/04/13 01:26:20;;;;;;;12.45;6.43;;;0.10;99.90;;;;;;4979347;28;20439;-73
2021/04/13 01:28:47;;;;;;;11.32;6.30;;;0.10;99.90;;;;;;4913658;28;20440;-73
2021/04/13 01:34:20;;;;;;;14.00;7.18;;;0.10;99.90;;;;;;4914032;29;20118;-74
2021/04/13 01:37:00;;;;;;;10.50;6.28;;;0.10;99.90;;;;;;4979154;28;20059;-74
2021/04/13 01:39:26;;;;;;;12.90;6.97;;;0.10;99.90;;;;;;4913625;28;20016;-74
2021/04/13 01:41:59;;;;;;;12.32;7.13;;;0.00;99.90;;;;;;4913702;28;20047;-74
2021/04/13 01:44:42;;;;;;;12.23;7.45;;;0.00;99.90;;;;;;4913605;28;20025;-74
2021/04/13 01:47:11;;;;;;;11.23;6.70;;;0.00;99.90;;;;;;4979015;28;20032;-73
2021/04/13 01:49:41;;;;;;;13.82;7.70;;;-0.20;99.90;;;;;;4978813;28;20032;-73
2021/04/13 01:52:25;;;;;;;12.80;7.10;;;-0.30;99.90;;;;;;4913439;28;20040;-74
2021/04/13 01:54:51;;;;;;;13.65;8.07;;;-0.30;99.90;;;;;;4978584;28;20098;-73
2021/04/13 01:57:20;;;;;;;19.60;8.75;;;-0.40;99.90;;;;;;4978692;28;20256;-73
2021/04/13 01:59:53;;;;;;;15.07;7.95;;;-0.50;99.90;;;;;;4978562;28;20442;-74
2021/04/13 02:02:30;;;;;;;13.80;7.70;;;-0.50;99.90;;;;;;4978345;28;20479;-73
2021/04/13 02:05:04;;;;;;;14.60;8.50;;;-0.40;99.90;;;;;;4978673;28;20051;-73
2021/04/13 02:07:48;;;;;;;14.82;8.20;;;-0.30;99.90;;;;;;4913500;29;20024;-73
2021/04/13 02:10:25;;;;;;;16.20;8.90;;;-0.30;99.90;;;;;;4913308;28;20028;-73
2021/04/13 02:12:55;;;;;;;15.07;8.55;;;-0.40;99.90;;;;;;4978071;28;20544;-74
2021/04/13 02:15:40;;;;;;;16.65;8.55;;;-0.40;99.90;;;;;;4913078;28;20036;-73
2021/04/13 02:18:22;;;;;;;13.63;8.15;;;-0.50;99.90;;;;;;4913474;28;20565;-74
2021/04/13 02:20:50;;;;;;;15.20;7.97;;;-0.50;99.90;;;;;;4978231;28;20047;-73
2021/04/13 02:23:23;;;;;;;17.10;9.52;;;-0.40;99.90;;;;;;4912863;28;20035;-73
2021/04/13 02:25:49;;;;;;;16.42;9.23;;;-0.50;99.90;;;;;;4977882;28;20421;-73
2021/04/13 02:28:17;;;;;;;15.38;9.23;;;-0.50;99.90;;;;;;4913334;29;20024;-74
2021/04/13 02:30:46;;;;;;;18.40;10.00;;;-0.40;99.90;;;;;;4913041;28;20103;-73
2021/04/13 02:33:23;;;;;;;15.70;9.00;;;-0.40;99.90;;;;;;4977626;28;20032;-73
2021/04/13 02:35:49;;;;;;;17.63;8.95;;;-0.40;99.90;;;;;;4978077;28;20024;-73
2021/04/13 02:38:21;;;;;;;16.40;9.65;;;-0.40;99.90;;;;;;4912651;29;20112;-74
2021/04/13 02:41:18;;;;;;;17.42;9.55;;;-0.40;99.90;;;;;;4912880;28;20024;-73
2021/04/13 02:43:49;;;;;;;19.08;11.20;;;-0.40;99.90;;;;;;4912793;28;20435;-74
2021/04/13 02:46:30;;;;;;;19.42;11.32;;;-0.50;99.90;;;;;;4912710;29;20024;-74
2021/04/13 02:49:10;;;;;;;17.75;10.95;;;-0.60;99.90;;;;;;4977431;28;20610;-74
2021/04/13 02:52:07;;;;;;;18.77;11.23;;;-0.50;99.90;;;;;;4912794;29;20043;-74
2021/04/13 02:54:43;;;;;;;22.13;11.52;;;-0.40;99.90;;;;;;4972935;28;20083;-74
2021/04/13 02:57:25;;;;;;;18.05;11.25;;;-0.30;99.90;;;;;;4977446;28;20023;-74
2021/04/13 02:59:57;;;;;;;19.40;11.13;;;-0.40;99.90;;;;;;4977719;28;20038;-73
2021/04/13 03:02:37;;;;;;;19.50;11.18;;;-0.30;99.90;;;;;;4977522;28;20032;-74
2021/04/13 03:05:05;;;;;;;18.73;11.13;;;-0.30;99.90;;;;;;4912558;28;20036;-74
2021/04/13 03:07:32;;;;;;;20.65;12.02;;;-0.30;99.90;;;;;;4912358;29;20036;-73
2021/04/13 03:10:07;;;;;;;21.40;12.23;;;-0.40;99.90;;;;;;4912496;29;20092;-74
2021/04/13 03:12:39;;;;;;;20.73;11.40;;;-0.40;99.90;;;;;;4912327;29;20086;-73
2021/04/13 03:15:06;;;;;;;23.95;12.40;;;-0.60;99.90;;;;;;4912489;29;20102;-73
2021/04/13 03:17:35;;;;;;;22.58;11.93;;;-0.70;99.90;;;;;;4912334;29;20036;-74
2021/04/13 03:20:14;;;;;;;18.98;11.00;;;-0.80;99.90;;;;;;4977094;28;20098;-73
2021/04/13 03:22:40;;;;;;;23.98;12.23;;;-0.90;99.90;;;;;;4976886;28;20372;-73
2021/04/13 03:25:09;;;;;;;22.27;12.45;;;-1.00;99.90;;;;;;4912491;29;20430;-73
2021/04/13 03:27:36;;;;;;;20.50;11.75;;;-1.00;99.90;;;;;;4976739;28;20548;-74
2021/04/13 03:30:08;;;;;;;22.63;11.60;;;-0.90;99.90;;;;;;4912105;29;20033;-74
2021/04/13 03:33:05;;;;;;;23.30;11.77;;;-0.90;99.90;;;;;;4911694;29;20029;-73
2021/04/13 03:35:33;;;;;;;26.60;12.95;;;-0.90;99.90;;;;;;4912456;28;20032;-74
2021/04/13 03:38:01;;;;;;;23.73;12.75;;;-0.80;99.90;;;;;;4976955;28;20051;-73
2021/04/13 03:40:29;;;;;;;24.15;12.75;;;-0.80;99.90;;;;;;4912013;29;20142;-73
2021/04/13 03:43:09;;;;;;;26.33;12.80;;;-0.80;99.90;;;;;;4912096;29;20450;-73
2021/04/13 03:45:37;;;;;;;22.65;12.57;;;-0.80;99.90;;;;;;4911948;29;20020;-74
2021/04/13 03:48:08;;;;;;;25.75;13.52;;;-0.90;99.90;;;;;;4976972;28;20063;-74
2021/04/13 03:50:39;;;;;;;23.65;12.73;;;-0.90;99.90;;;;;;4911871;29;20024;-73
2021/04/13 03:53:06;;;;;;;;;;;-1.00;99.90;;;;;;4977053;28;20032;-73
2021/04/13 03:55:33;;;;;;;25.60;12.38;;;-1.00;99.90;;;;;;4977109;28;19907;-73
2021/04/13 03:58:18;;;;;;;23.05;11.75;;;-1.10;99.90;;;;;;4911602;29;20035;-73
2021/04/13 04:00:44;;;;;;;23.75;13.02;;;-1.10;99.90;;;;;;4911760;29;20047;-73
2021/04/13 04:03:10;;;;;;;32.88;14.23;;;-1.10;99.90;;;;;;4911451;29;20040;-73
2021/04/13 04:05:49;;;;;;;36.60;15.65;;;-1.10;99.90;;;;;;4911636;29;20031;-73
2021/04/13 04:08:33;;;;;;;28.17;13.38;;;-1.20;99.90;;;;;;4911562;29;20024;-74
2021/04/13 04:10:59;;;;;;;23.27;12.43;;;-1.20;99.90;;;;;;4905941;29;20035;-73
2021/04/13 04:13:52;;;;;;;29.75;13.77;;;-1.10;99.90;;;;;;4898371;29;20513;-74
2021/04/13 04:16:32;;;;;;;24.95;14.13;;;-1.10;99.90;;;;;;4904490;28;20039;-73
2021/04/13 04:19:12;;;;;;;24.23;14.05;;;-1.10;99.90;;;;;;4976711;28;20028;-73
2021/04/13 04:21:40;;;;;;;29.35;14.85;;;-0.90;99.90;;;;;;4911290;29;20033;-73
2021/04/13 04:24:37;;;;;;;25.35;13.93;;;-0.80;99.90;;;;;;4911506;29;20107;-74
2021/04/13 04:27:14;;;;;;;24.40;14.20;;;-0.80;99.90;;;;;;4976667;28;20032;-74
2021/04/13 04:30:09;;;;;;;25.63;14.13;;;-0.80;99.90;;;;;;4976560;28;20051;-74
2021/04/13 04:32:40;;;;;;;25.63;13.55;;;-0.70;99.90;;;;;;4967607;28;20143;-74
2021/04/13 04:35:10;;;;;;;34.85;18.83;;;-0.70;99.90;;;;;;4976571;28;20271;-74
2021/04/13 04:38:08;;;;;;;28.15;17.10;;;-0.80;99.90;;;;;;4976496;28;20028;-74
2021/04/13 04:40:50;;;;;;;32.33;18.40;;;-0.90;99.90;;;;;;4913643;29;20491;-74
2021/04/13 04:43:18;;;;;;;46.00;20.45;;;-0.90;99.90;;;;;;4914173;29;20071;-74
2021/04/13 04:45:43;;;;;;;53.00;22.02;;;-0.90;99.90;;;;;;4971681;28;20021;-73
2021/04/13 04:48:27;;;;;;;29.00;15.23;;;-0.90;99.90;;;;;;4950715;28;20029;-73
2021/04/13 04:51:05;;;;;;;28.35;15.65;;;-0.80;99.90;;;;;;4941388;28;20049;-73
2021/04/13 04:53:32;;;;;;;25.40;14.80;;;-0.90;99.90;;;;;;4876887;29;20033;-74
2021/04/13 04:55:59;;;;;;;28.33;15.57;;;-0.90;99.90;;;;;;4941236;29;20123;-73
2021/04/13 04:58:25;;;;;;;30.17;15.40;;;-0.80;99.90;;;;;;4944478;28;20519;-73
2021/04/13 05:00:52;;;;;;;25.35;14.40;;;-0.70;99.90;;;;;;4895560;29;20029;-73
2021/04/13 05:03:19;;;;;;;29.20;16.05;;;-0.50;99.90;;;;;;4895213;29;20024;-73
2021/04/13 05:05:44;;;;;;;26.48;15.45;;;-0.30;99.90;;;;;;4893560;29;20395;-73
2021/04/13 05:08:10;;;;;;;27.48;15.95;;;-0.40;99.90;;;;;;4959857;28;20032;-72
2021/04/13 05:10:36;;;;;;;29.58;15.38;;;-0.50;99.90;;;;;;4895218;29;20539;-72
2021/04/13 05:13:02;;;;;;;31.27;15.90;;;-0.50;99.90;;;;;;4959749;28;20044;-73
2021/04/13 05:15:27;;;;;;;27.45;15.68;;;-0.50;99.90;;;;;;4937078;28;20068;-73
2021/04/13 05:17:53;;;;;;;36.50;18.15;;;-0.50;99.90;;;;;;4928758;28;20141;-72
2021/04/13 05:20:19;;;;;;;31.98;17.70;;;-0.40;99.90;;;;;;4892404;29;20040;-73
2021/04/13 05:22:45;;;;;;;37.15;18.48;;;-0.40;99.90;;;;;;4894828;29;20028;-72
2021/04/13 05:25:12;;;;;;;34.22;19.58;;;-0.40;99.90;;;;;;4894945;29;20240;-72
2021/04/13 05:27:38;;;;;;;38.58;17.95;;;-0.30;99.90;;;;;;4895051;29;20020;-72
2021/04/13 05:30:08;;;;;;;40.10;18.88;;;-0.30;99.90;;;;;;4901429;29;20589;-72
2021/04/13 05:32:34;;;;;;;36.03;18.17;;;-0.30;99.90;;;;;;4979158;28;20090;-72
2021/04/13 05:35:00;;;;;;;38.67;17.30;;;-0.20;99.90;;;;;;4979255;28;20056;-72
2021/04/13 05:37:28;;;;;;;32.05;17.23;;;-0.10;99.90;;;;;;4978990;28;20407;-72
2021/04/13 05:39:55;;;;;;;33.28;17.80;;;-0.10;99.90;;;;;;4913745;29;20119;-72
2021/04/13 05:42:30;;;;;;;33.28;17.02;;;0.00;99.90;;;;;;4913445;29;20518;-72
2021/04/13 05:44:58;;;;;;;28.90;16.10;;;0.10;99.90;;;;;;4913878;29;20477;-72
2021/04/13 05:47:25;;;;;;;27.92;13.57;;;0.20;99.90;;;;;;4906466;29;20096;-72
2021/04/13 05:49:51;;;;;;;26.35;14.90;;;0.40;99.90;;;;;;4894421;28;20048;-72
2021/04/13 05:52:16;;;;;;;29.65;14.65;;;0.60;99.90;;;;;;4893961;29;20070;-72
2021/04/13 05:54:42;;;;;;;29.20;14.70;;;0.70;99.90;;;;;;4894012;29;20380;-73
2021/04/13 05:57:12;;;;;;;28.48;13.85;;;0.80;99.90;;;;;;4894573;29;20036;-72
2021/04/13 05:59:37;;;;;;;27.70;13.95;;;0.90;99.90;;;;;;4913213;28;20032;-72
2021/04/13 06:02:04;;;;;;;25.98;14.80;;;0.90;99.90;;;;;;4951045;28;20047;-72
2021/04/13 06:04:30;;;;;;;26.88;14.50;;;0.90;99.90;;;;;;4893123;29;20035;-72
2021/04/13 06:06:56;;;;;;;26.75;14.07;;;1.00;99.90;;;;;;4894570;28;20024;-72
2021/04/13 06:09:22;;;;;;;21.83;12.50;;;1.10;99.90;;;;;;4958733;28;20403;-73
2021/04/13 06:11:48;;;;;;;24.20;13.15;;;1.20;99.90;;;;;;4894161;29;20115;-72
2021/04/13 06:14:15;;;;;;;23.23;13.13;;;1.30;99.90;;;;;;4894204;29;20501;-72
2021/04/13 06:16:43;;;;;;;28.80;13.02;;;1.40;99.90;;;;;;4892004;28;20025;-72
2021/04/13 06:19:08;;;;;;;25.33;13.23;;;1.50;99.90;;;;;;4956936;28;20035;-73
2021/04/13 06:21:34;;;;;;;24.10;12.50;;;1.60;99.90;;;;;;4898433;29;20024;-73
2021/04/13 06:24:00;;;;;;;26.90;14.35;;;1.60;99.90;;;;;;4875434;29;20025;-72
2021/04/13 06:26:26;;;;;;;26.40;13.52;;;1.60;99.90;;;;;;4875473;29;20029;-73
2021/04/13 06:28:52;;;;;;;30.42;16.08;;;1.80;99.90;;;;;;4939329;28;20037;-73
2021/04/13 06:31:17;;;;;;;25.20;13.25;;;1.90;99.90;;;;;;4939099;29;20500;-73
2021/04/13 06:33:43;;;;;;;24.02;12.95;;;2.00;99.90;;;;;;4875261;29;20067;-73
2021/04/13 06:36:13;;;;;;;23.52;13.02;;;2.20;99.90;;;;;;4891755;29;20067;-73
2021/04/13 06:38:39;;;;;;;27.67;12.65;;;2.40;99.90;;;;;;4958447;28;20052;-73
2021/04/13 06:41:26;;;;;;;23.98;11.93;;;2.50;99.90;;;;;;4958425;28;20482;-73
2021/04/13 06:44:14;;;;;;;18.42;9.98;;;2.60;99.90;;;;;;4893812;29;20033;-73
2021/04/13 06:46:54;;;;;;;16.25;9.27;;;3.00;99.90;;;;;;4899895;28;20029;-73
2021/04/13 06:49:41;;;;;;;17.17;9.52;;;3.10;99.90;;;;;;4958427;28;20032;-72
2021/04/13 06:52:18;;;;;;;15.63;9.00;;;3.20;99.90;;;;;;4893677;28;20029;-73
2021/04/13 06:55:01;;;;;;;16.00;8.77;;;3.20;99.90;;;;;;4958419;28;20032;-73
2021/04/13 06:57:29;;;;;;;16.55;9.20;;;3.40;99.90;;;;;;4958643;28;20029;-73
2021/04/13 07:00:01;;;;;;;17.15;8.77;;;3.50;99.90;;;;;;4958088;28;20403;-73
2021/04/13 07:02:50;;;;;;;16.05;9.02;;;3.50;99.90;;;;;;4896302;28;20032;-72
2021/04/13 07:05:19;;;;;;;15.40;8.88;;;3.70;99.90;;;;;;4912715;28;20115;-69
2021/04/13 07:07:52;;;;;;;19.77;8.80;;;3.80;99.90;;;;;;4899268;28;20036;-69
2021/04/13 07:10:26;;;;;;;15.10;8.52;;;3.90;99.90;;;;;;4958230;28;20104;-70
2021/04/13 07:13:13;;;;;;;15.90;8.60;;;4.00;99.90;;;;;;4893144;28;20025;-69
2021/04/13 07:15:42;;;;;;;14.70;7.70;;;4.00;99.90;;;;;;4893490;28;20029;-69
2021/04/13 07:18:21;;;;;;;17.67;9.20;;;4.00;99.90;;;;;;4892194;28;20033;-69
2021/04/13 07:20:58;;;;;;;15.35;9.32;;;4.10;99.90;;;;;;4893490;29;20276;-69
2021/04/13 07:23:34;;;;;;;21.38;8.77;;;4.30;99.90;;;;;;4893175;28;20083;-69
2021/04/13 07:26:11;;;;;;;18.35;8.32;;;4.40;99.90;;;;;;4893351;28;20610;-69
2021/04/13 07:28:51;;;;;;;19.02;8.30;;;4.60;99.30;;;;;;4892021;28;20483;-68
2021/04/13 07:31:20;;;;;;;18.80;7.97;;;4.60;99.20;;;;;;4893127;29;20503;-69
2021/04/13 07:33:46;;;;;;;13.40;5.78;;;4.60;99.20;;;;;;4889056;28;20029;-69
2021/04/13 07:36:29;;;;;;;12.18;6.15;;;4.80;98.50;;;;;;4946993;28;20113;-69
2021/04/13 07:38:55;;;;;;;14.48;6.35;;;4.70;97.60;;;;;;4874389;28;20052;-69
2021/04/13 07:41:35;;;;;;;10.85;5.45;;;4.50;98.20;;;;;;4938286;28;20043;-69
2021/04/13 07:44:07;;;;;;;14.95;6.72;;;4.70;98.20;;;;;;4880152;29;20427;-69
2021/04/13 07:46:45;;;;;;;10.55;6.30;;;4.80;97.40;;;;;;4897463;28;20024;-70
2021/04/13 07:49:15;;;;;;;13.02;7.05;;;4.90;97.40;;;;;;4902406;28;20103;-69
2021/04/13 07:51:59;;;;;;;;;;;4.90;97.70;;;;;;4898481;28;20196;-69
2021/04/13 07:54:39;;;;;;;10.90;6.03;;;5.00;97.60;;;;;;4902997;29;19951;-69
2021/04/13 07:57:18;;;;;;;16.20;7.30;;;5.30;96.90;;;;;;4904132;29;20059;-70
2021/04/13 08:00:05;;;;;;;16.10;7.00;;;5.60;96.90;;;;;;4968427;28;20040;-69
2021/04/13 08:02:31;;;;;;;13.48;6.60;;;5.60;96.20;;;;;;4874008;29;20030;-69
2021/04/13 08:04:58;;;;;;;11.63;6.07;;;5.50;96.00;;;;;;4874248;29;20026;-69
2021/04/13 08:07:30;;;;;;;15.93;6.90;;;5.50;95.40;;;;;;4874331;28;20025;-69
2021/04/13 08:10:12;;;;;;;15.52;6.65;;;5.50;95.00;;;;;;4874175;29;20488;-69
2021/04/13 08:12:56;;;;;;;16.45;7.57;;;5.60;95.10;;;;;;4873834;28;20063;-71
2021/04/13 08:15:40;;;;;;;16.85;8.73;;;5.80;96.30;;;;;;4877314;29;20368;-70
2021/04/13 08:18:18;;;;;;;14.32;7.25;;;5.70;95.80;;;;;;4942048;29;20396;-70
2021/04/13 08:20:45;;;;;;;11.30;7.35;;;5.60;95.50;;;;;;4877577;29;20025;-70
2021/04/13 08:23:36;;;;;;;19.10;8.55;;;5.70;95.20;;;;;;4879016;28;20075;-70
2021/04/13 08:26:16;;;;;;;;;;;5.80;96.60;;;;;;4890205;29;20747;-70
2021/04/13 08:29:02;;;;;;;12.93;6.95;;;5.90;95.20;;;;;;4895916;28;19954;-69
2021/04/13 08:34:40;;;;;;;11.75;5.88;;;5.70;95.50;;;;;;4895645;28;20031;-69
2021/04/13 08:37:26;;;;;;;15.45;6.15;;;5.40;95.10;;;;;;4895837;28;20020;-69
2021/04/13 08:40:17;;;;;;;12.10;5.60;;;5.60;94.90;;;;;;4895793;28;20438;-69
2021/04/13 08:43:11;;;;;;;8.90;4.90;;;5.80;94.40;;;;;;4895539;28;20104;-69
2021/04/13 08:45:46;;;;;;;12.15;5.07;;;6.10;94.20;;;;;;4905755;28;20491;-69
2021/04/13 08:48:36;;;;;;;11.75;4.70;;;6.10;94.10;;;;;;4895385;28;20029;-69
2021/04/13 08:51:13;;;;;;;10.77;4.53;;;6.40;93.50;;;;;;4937053;29;20521;-69
2021/04/13 08:53:44;;;;;;;12.13;6.05;;;6.60;93.30;;;;;;4963562;28;20114;-70
2021/04/13 08:56:19;;;;;;;11.90;5.28;;;6.50;93.50;;;;;;4972492;28;20050;-70
2021/04/13 08:58:52;;;;;;;8.98;4.28;;;6.40;94.20;;;;;;4972054;28;20045;-70
2021/04/13 09:01:26;;;;;;;9.18;3.65;;;6.40;93.10;;;;;;4972057;28;20738;-70
2021/04/13 09:03:52;;;;;;;9.25;3.42;;;6.50;93.30;;;;;;4972161;28;20447;-70
2021/04/13 09:06:39;;;;;;;8.95;3.65;;;6.50;92.10;;;;;;4972018;28;20031;-70
2021/04/13 09:09:05;;;;;;;16.35;4.00;;;6.60;92.50;;;;;;4955931;28;20030;-69
2021/04/13 09:11:47;;;;;;;7.63;3.30;;;6.90;93.40;;;;;;4955699;28;20045;-69
2021/04/13 09:14:37;;;;;;;8.35;2.83;;;7.00;91.80;;;;;;4971950;28;20059;-69
2021/04/13 09:17:19;;;;;;;7.22;2.95;;;6.90;91.00;;;;;;4972084;28;20092;-70
2021/04/13 09:20:18;;;;;;;9.50;4.38;;;6.90;92.50;;;;;;4968076;28;20055;-70
2021/04/13 09:23:08;;;;;;;7.18;2.97;;;7.30;91.20;;;;;;4888549;29;20041;-70
2021/04/13 09:26:03;;;;;;;9.33;3.10;;;7.10;91.20;;;;;;4875816;29;20026;-70
2021/04/13 09:28:49;;;;;;;9.15;2.88;;;7.20;90.70;;;;;;4876278;29;20022;-70
2021/04/13 09:31:20;;;;;;;7.53;3.13;;;7.50;91.10;;;;;;4876293;28;20025;-70
2021/04/13 09:33:46;;;;;;;11.50;4.30;;;7.50;89.30;;;;;;4940588;29;20083;-70
2021/04/13 09:36:20;;;;;;;7.70;3.20;;;7.60;89.40;;;;;;4876967;29;20033;-69
2021/04/13 09:39:10;;;;;;;8.43;2.95;;;7.60;91.30;;;;;;4894778;29;20037;-74
2021/04/13 09:42:06;;;;;;;8.03;2.97;;;7.50;89.60;;;;;;4894754;28;20021;-70
2021/04/13 09:45:09;;;;;;;12.60;6.00;;;7.40;92.30;;;;;;4894991;28;20277;-70
2021/04/13 09:47:54;;;;;;;6.63;2.70;;;7.60;92.90;;;;;;4895021;28;20395;-70
2021/04/13 09:50:43;;;;;;;9.88;3.05;;;7.50;91.20;;;;;;4895019;28;20028;-70
2021/04/13 09:53:28;;;;;;;7.85;2.50;;;7.50;92.10;;;;;;4894648;28;20036;-70
2021/04/13 09:56:02;;;;;;;7.57;2.60;;;7.70;91.00;;;;;;4894697;28;20067;-71
2021/04/13 09:58:57;;;;;;;5.63;2.40;;;7.50;90.00;;;;;;4894576;28;20120;-71
2021/04/13 10:01:40;;;;;;;6.10;2.63;;;7.50;91.00;;;;;;4894881;29;20476;-71
2021/04/13 10:04:31;;;;;;;8.02;2.90;;;7.60;90.10;;;;;;4879546;29;20033;-71
2021/04/13 10:07:22;;;;;;;15.27;3.10;;;7.50;90.90;;;;;;4879485;29;20036;-71
2021/04/13 10:09:48;;;;;;;6.28;2.55;;;7.60;90.00;;;;;;4907750;29;20020;-71
2021/04/13 10:12:52;;;;;;;6.43;2.72;;;7.50;89.40;;;;;;4913590;29;20107;-71
2021/04/13 10:15:37;;;;;;;6.53;3.03;;;7.90;90.40;;;;;;4897991;29;20032;-71
2021/04/13 10:18:20;;;;;;;8.50;2.85;;;8.00;85.50;;;;;;4913848;29;20390;-71
2021/04/13 10:21:36;;;;;;;9.52;2.78;;;8.30;85.60;;;;;;4913675;29;20032;-71
2021/04/13 10:24:29;;;;;;;9.63;3.60;;;8.30;85.50;;;;;;4894600;29;20043;-71
2021/04/13 10:27:00;;;;;;;7.78;3.08;;;8.00;86.20;;;;;;4894603;29;20033;-71
2021/04/13 10:29:52;;;;;;;9.32;3.53;;;7.90;85.80;;;;;;4884459;29;20558;-71
2021/04/13 10:33:18;;;;;;;8.35;3.33;;;7.70;87.80;;;;;;4875407;29;20052;-71
2021/04/13 10:36:23;;;;;;;10.35;3.47;;;7.50;88.10;;;;;;4805175;29;20046;-71
2021/04/13 10:39:13;;;;;;;9.32;3.25;;;7.30;89.50;;;;;;4888224;29;20062;-71
2021/04/13 10:42:03;;;;;;;7.28;3.30;;;7.20;90.20;;;;;;4896929;29;20028;-72
2021/04/13 10:44:47;;;;;;;6.90;3.07;;;7.40;90.70;;;;;;4913022;29;20032;-72
2021/04/13 10:47:58;;;;;;;8.55;3.30;;;7.50;88.50;;;;;;4913071;29;20261;-72
2021/04/13 10:51:00;;;;;;;10.38;3.80;;;7.60;88.10;;;;;;4913073;29;20032;-71
2021/04/13 10:53:58;;;;;;;13.48;4.03;;;7.80;88.00;;;;;;4912447;29;20546;-71
2021/04/13 10:56:39;;;;;;;11.88;3.03;;;7.90;86.60;;;;;;4911215;29;20044;-71
2021/04/13 10:59:37;;;;;;;8.60;2.75;;;8.00;83.80;;;;;;4835463;29;20128;-71
2021/04/13 11:02:06;;;;;;;7.90;2.72;;;7.70;83.10;;;;;;4835475;29;20030;-72
2021/04/13 11:05:06;;;;;;;6.25;2.10;;;8.00;83.40;;;;;;4835698;29;20038;-72
2021/04/13 11:07:50;;;;;;;7.00;2.37;;;8.20;85.10;;;;;;4835607;29;20030;-72
2021/04/13 11:10:45;;;;;;;12.95;2.60;;;8.20;81.90;;;;;;4885005;29;20301;-71
2021/04/13 11:13:30;;;;;;;7.88;2.85;;;7.90;84.20;;;;;;4893441;29;20024;-71
2021/04/13 11:16:35;;;;;;;6.55;2.63;;;7.90;86.50;;;;;;4902749;29;20035;-72
2021/04/13 11:19:22;;;;;;;7.88;2.80;;;8.20;86.30;;;;;;4874917;28;20033;-71
2021/04/13 11:21:53;;;;;;;6.88;3.17;;;8.40;86.40;;;;;;4884342;28;20032;-70
2021/04/13 11:24:31;;;;;;;8.88;2.70;;;8.60;83.40;;;;;;4891390;29;20021;-71
2021/04/13 11:27:32;;;;;;;7.40;2.67;;;8.60;82.70;;;;;;4886102;29;20025;-71
2021/04/13 11:30:18;;;;;;;8.25;3.28;;;8.70;81.80;;;;;;4901884;29;20038;-71
2021/04/13 11:33:12;;;;;;;11.38;3.17;;;8.40;80.90;;;;;;4888452;28;20039;-75
2021/04/13 11:35:44;;;;;;;7.18;3.00;;;8.10;84.60;;;;;;4948658;28;20029;-71
2021/04/13 11:38:31;;;;;;;9.13;4.15;;;8.20;83.60;;;;;;4955903;28;20040;-71
2021/04/13 11:41:29;;;;;;;7.15;3.10;;;8.20;85.10;;;;;;4893310;29;20427;-71
2021/04/13 11:44:04;;;;;;;7.75;3.17;;;8.40;83.60;;;;;;4923619;29;20040;-71
2021/04/13 11:46:58;;;;;;;10.25;3.20;;;8.60;83.40;;;;;;4889817;29;20033;-71
2021/04/13 11:49:50;;;;;;;10.30;3.28;;;8.70;86.00;;;;;;4962322;28;20033;-71
2021/04/13 11:52:21;;;;;;;7.53;3.05;;;8.70;89.00;;;;;;4957121;28;20029;-71
2021/04/13 11:54:52;;;;;;;10.60;3.33;;;9.30;83.30;;;;;;4898672;29;20119;-71
2021/04/13 11:57:30;;;;;;;7.60;3.00;;;9.30;80.30;;;;;;4899500;29;20032;-71
2021/04/13 12:00:19;;;;;;;8.63;2.97;;;9.60;84.20;;;;;;4880358;29;20037;-70
2021/04/13 12:03:01;;;;;;;8.25;2.85;;;9.50;80.70;;;;;;4880322;28;20091;-71
2021/04/13 12:05:32;;;;;;;8.55;2.60;;;9.10;80.90;;;;;;4880708;29;20056;-70
2021/04/13 12:07:59;;;;;;;5.97;2.15;;;9.10;81.40;;;;;;4960548;28;20021;-70
2021/04/13 12:10:30;;;;;;;7.40;2.50;;;8.90;79.00;;;;;;4880333;29;20104;-71
2021/04/13 12:13:04;;;;;;;9.70;2.60;;;8.40;81.00;;;;;;4960302;28;20033;-72
2021/04/13 12:15:30;;;;;;;7.18;2.58;;;8.40;82.10;;;;;;4944648;29;20033;-72
2021/04/13 12:17:58;;;;;;;7.28;2.40;;;8.50;81.90;;;;;;4880233;29;20067;-71
2021/04/13 12:20:27;;;;;;;10.15;2.47;;;8.40;83.90;;;;;;4880563;29;20048;-71
2021/04/13 12:23:00;;;;;;;6.75;2.60;;;8.50;81.50;;;;;;4982363;28;20028;-71
2021/04/13 12:25:39;;;;;;;7.53;2.42;;;8.70;83.00;;;;;;4898740;29;20025;-71
2021/04/13 12:28:07;;;;;;;7.25;2.08;;;9.50;84.10;;;;;;4897485;28;20025;-71
2021/04/13 12:30:50;;;;;;;5.97;2.10;;;11.30;73.70;;;;;;4897450;28;20538;-71
2021/04/13 12:33:24;;;;;;;5.38;1.83;;;12.70;67.30;;;;;;4898662;28;20086;-72
2021/04/13 12:35:50;;;;;;;5.70;2.40;;;13.70;61.90;;;;;;4898822;28;20430;-72
2021/04/13 12:38:45;;;;;;;5.93;2.20;;;14.20;56.90;;;;;;4897282;28;20428;-72
2021/04/13 12:41:17;;;;;;;5.53;2.00;;;14.60;53.50;;;;;;4898564;29;20028;-72
2021/04/13 12:43:53;;;;;;;8.27;2.85;;;14.40;51.30;;;;;;4897187;29;20025;-72
2021/04/13 12:46:21;;;;;;;7.80;2.40;;;13.00;53.00;;;;;;4898557;28;20024;-73
2021/04/13 12:48:47;;;;;;;7.07;2.63;;;12.10;53.90;;;;;;4898377;28;20399;-72
2021/04/13 12:51:24;;;;;;;7.85;2.15;;;11.50;58.90;;;;;;4897150;28;20462;-71
2021/04/13 12:54:06;;;;;;;8.80;3.33;;;11.20;59.30;;;;;;4898639;29;20056;-72
2021/04/13 12:56:32;;;;;;;7.03;2.63;;;10.60;64.20;;;;;;4898422;29;20037;-73
2021/04/13 12:59:10;;;;;;;7.25;2.60;;;10.90;61.80;;;;;;4898005;28;20407;-72
2021/04/13 13:01:39;;;;;;;9.57;2.67;;;12.30;59.60;;;;;;4894089;28;20025;-72
2021/04/13 13:04:14;;;;;;;7.13;2.40;;;12.20;57.90;;;;;;4894081;29;20372;-73
2021/04/13 13:06:49;;;;;;;8.82;2.88;;;11.60;58.20;;;;;;4895468;29;20100;-73
2021/04/13 13:09:31;;;;;;;9.30;2.72;;;10.90;60.60;;;;;;4895315;29;20377;-71
2021/04/13 13:12:06;;;;;;;10.95;3.10;;;10.40;63.40;;;;;;4895200;29;20427;-71
2021/04/13 13:14:34;;;;;;;9.43;2.83;;;10.00;66.00;;;;;;4892514;28;20029;-71
2021/04/13 13:17:01;;;;;;;8.68;2.92;;;9.70;67.70;;;;;;4885377;28;20487;-72
2021/04/13 13:19:49;;;;;;;6.70;2.97;;;9.40;68.40;;;;;;4940603;28;20060;-72
2021/04/13 13:22:35;;;;;;;9.30;3.25;;;10.60;69.30;;;;;;4888091;29;20380;-72
2021/04/13 13:25:32;;;;;;;9.32;2.53;;;12.60;63.20;;;;;;4959632;28;20115;-73
2021/04/13 13:28:19;;;;;;;6.47;2.10;;;13.80;56.80;;;;;;4914197;29;20041;-72
2021/04/13 13:30:46;;;;;;;7.47;2.97;;;14.80;55.40;;;;;;4929393;29;20057;-72
2021/04/13 13:33:13;;;;;;;6.43;2.53;;;15.10;47.60;;;;;;4933071;29;20056;-71
2021/04/13 13:35:39;;;;;;;7.68;2.30;;;15.40;47.60;;;;;;4933609;29;20036;-72
2021/04/13 13:38:04;;;;;;;6.90;2.70;;;15.30;47.10;;;;;;4902227;29;20427;-72
2021/04/13 13:40:39;;;;;;;7.55;2.88;;;15.70;47.00;;;;;;4914463;29;20076;-72